createdAt,value
2018-06-03T00:00:43.256Z,18.7
2018-06-03T00:01:52.122Z,18.81
2018-06-03T00:03:01.132Z,18.73
2018-06-03T00:04:10.000Z,18.76
2018-06-03T00:05:18.858Z,18.78
2018-06-03T00:06:27.718Z,18.73
2018-06-03T00:07:36.579Z,18.8
2018-06-03T00:08:45.544Z,18.73
2018-06-03T00:09:54.407Z,18.75
2018-06-03T00:11:03.272Z,18.78
2018-06-03T00:12:12.130Z,18.8
2018-06-03T00:13:20.993Z,18.81
2018-06-03T00:14:31.865Z,18.76
2018-06-03T00:15:40.730Z,18.82
2018-06-03T00:16:49.592Z,18.76
2018-06-03T00:17:58.457Z,18.78
2018-06-03T00:19:07.597Z,18.76
2018-06-03T00:20:16.610Z,18.75
2018-06-03T00:21:25.473Z,18.76
2018-06-03T00:22:34.336Z,18.81
2018-06-03T00:23:43.202Z,18.81
2018-06-03T00:24:52.061Z,18.75
2018-06-03T00:26:00.958Z,18.84
2018-06-03T00:27:10.077Z,18.85
2018-06-03T00:28:19.224Z,18.81
2018-06-03T00:29:28.085Z,18.81
2018-06-03T00:30:37.238Z,18.8
2018-06-03T00:31:46.101Z,18.87
2018-06-03T00:32:55.240Z,18.88
2018-06-03T00:34:04.381Z,18.81
2018-06-03T00:35:13.850Z,18.82
2018-06-03T00:36:22.714Z,18.9
2018-06-03T00:37:32.008Z,18.85
2018-06-03T00:38:40.871Z,18.85
2018-06-03T00:39:49.734Z,18.87
2018-06-03T00:40:58.600Z,18.91
2018-06-03T00:42:07.461Z,18.9
2018-06-03T00:43:16.476Z,18.87
2018-06-03T00:44:25.365Z,18.82
2018-06-03T00:45:34.506Z,18.9
2018-06-03T00:46:43.378Z,18.8
2018-06-03T00:47:52.242Z,18.81
2018-06-03T00:49:01.257Z,18.78
2018-06-03T00:50:10.118Z,18.76
2018-06-03T00:51:18.983Z,18.8
2018-06-03T00:52:28.127Z,18.81
2018-06-03T00:53:36.991Z,18.78
2018-06-03T00:54:45.953Z,18.87
2018-06-03T00:55:54.817Z,18.85
2018-06-03T00:57:03.686Z,18.81
2018-06-03T00:58:12.546Z,18.85
2018-06-03T00:59:21.409Z,18.82
2018-06-03T01:00:30.603Z,18.87
2018-06-03T01:01:39.472Z,18.84
2018-06-03T01:02:48.333Z,18.84
2018-06-03T01:03:57.195Z,18.8
2018-06-03T01:05:06.058Z,18.8
2018-06-03T01:06:14.926Z,18.81
2018-06-03T01:07:24.072Z,18.82
2018-06-03T01:08:32.932Z,18.85
2018-06-03T01:09:41.799Z,18.82
2018-06-03T01:10:50.661Z,18.87
2018-06-03T01:11:59.678Z,18.75
2018-06-03T01:13:08.537Z,18.76
2018-06-03T01:14:17.401Z,18.78
2018-06-03T01:15:26.270Z,18.75
2018-06-03T01:16:35.132Z,18.69
2018-06-03T01:17:44.142Z,18.66
2018-06-03T01:18:53.007Z,18.63
2018-06-03T01:20:01.873Z,18.65
2018-06-03T01:21:10.744Z,18.6
2018-06-03T01:22:19.610Z,18.62
2018-06-03T01:23:28.623Z,18.62
2018-06-03T01:24:37.763Z,18.66
2018-06-03T01:25:46.624Z,18.57
2018-06-03T01:26:55.488Z,18.58
2018-06-03T01:28:04.350Z,18.58
2018-06-03T01:29:13.540Z,18.62
2018-06-03T01:30:22.404Z,18.67
2018-06-03T01:31:31.265Z,18.65
2018-06-03T01:32:40.405Z,18.66
2018-06-03T01:33:49.271Z,18.65
2018-06-03T01:34:58.412Z,18.7
2018-06-03T01:36:07.551Z,18.69
2018-06-03T01:37:16.417Z,18.66
2018-06-03T01:38:25.281Z,18.81
2018-06-03T01:39:34.143Z,18.78
2018-06-03T01:40:43.054Z,18.69
2018-06-03T01:41:51.916Z,18.75
2018-06-03T01:43:01.335Z,18.67
2018-06-03T01:44:10.199Z,18.72
2018-06-03T01:45:19.340Z,18.72
2018-06-03T01:46:28.204Z,18.69
2018-06-03T01:47:37.623Z,18.67
2018-06-03T01:48:46.763Z,18.67
2018-06-03T01:49:55.625Z,18.67
2018-06-03T01:51:04.488Z,18.62
2018-06-03T01:52:13.681Z,18.67
2018-06-03T01:53:22.545Z,18.66
2018-06-03T01:54:31.408Z,18.67
2018-06-03T01:55:40.275Z,18.6
2018-06-03T01:56:49.414Z,18.57
2018-06-03T01:57:58.836Z,18.58
2018-06-03T01:59:07.698Z,18.6
2018-06-03T02:00:16.562Z,18.67
2018-06-03T02:01:25.424Z,18.52
2018-06-03T02:02:34.851Z,18.58
2018-06-03T02:03:43.814Z,18.55
2018-06-03T02:04:52.957Z,18.6
2018-06-03T02:06:02.105Z,18.57
2018-06-03T02:07:11.243Z,18.6
2018-06-03T02:08:20.107Z,18.54
2018-06-03T02:09:29.581Z,18.57
2018-06-03T02:10:38.722Z,18.58
2018-06-03T02:11:47.586Z,18.6
2018-06-03T02:12:56.458Z,18.58
2018-06-03T02:14:05.321Z,18.58
2018-06-03T02:15:14.336Z,18.6
2018-06-03T02:16:23.202Z,18.62
2018-06-03T02:17:32.342Z,18.57
2018-06-03T02:18:41.478Z,18.62
2018-06-03T02:19:50.906Z,18.55
2018-06-03T02:20:59.819Z,18.54
2018-06-03T02:22:08.684Z,18.6
2018-06-03T02:23:17.546Z,18.52
2018-06-03T02:24:26.410Z,18.6
2018-06-03T02:25:35.275Z,18.54
2018-06-03T02:26:44.292Z,18.57
2018-06-03T02:27:53.159Z,18.57
2018-06-03T02:29:02.306Z,18.58
2018-06-03T02:30:11.449Z,18.57
2018-06-03T02:31:20.594Z,18.54
2018-06-03T02:32:30.085Z,18.55
2018-06-03T02:33:39.237Z,18.58
2018-06-03T02:34:48.098Z,18.54
2018-06-03T02:35:57.804Z,18.5
2018-06-03T02:37:06.948Z,18.51
2018-06-03T02:38:16.524Z,18.54
2018-06-03T02:39:25.415Z,18.58
2018-06-03T02:40:34.833Z,18.55
2018-06-03T02:41:43.701Z,18.52
2018-06-03T02:42:52.569Z,18.58
2018-06-03T02:44:01.437Z,18.55
2018-06-03T02:45:10.303Z,18.58
2018-06-03T02:46:19.728Z,18.51
2018-06-03T02:47:28.879Z,18.54
2018-06-03T02:48:37.742Z,18.52
2018-06-03T02:49:47.242Z,18.54
2018-06-03T02:50:56.399Z,18.62
2018-06-03T02:52:05.544Z,18.55
2018-06-03T02:53:14.683Z,18.58
2018-06-03T02:54:23.827Z,18.57
2018-06-03T02:55:33.120Z,18.63
2018-06-03T02:56:42.617Z,18.55
2018-06-03T02:57:51.759Z,18.58
2018-06-03T02:59:01.191Z,18.57
2018-06-03T03:00:10.066Z,18.58
2018-06-03T03:01:19.500Z,18.58
2018-06-03T03:02:28.366Z,18.65
2018-06-03T03:03:37.511Z,18.54
2018-06-03T03:04:46.380Z,18.63
2018-06-03T03:05:55.531Z,18.57
2018-06-03T03:07:05.099Z,18.52
2018-06-03T03:08:14.524Z,18.5
2018-06-03T03:09:24.228Z,18.52
2018-06-03T03:10:33.390Z,18.63
2018-06-03T03:11:43.086Z,18.57
2018-06-03T03:12:52.856Z,18.52
2018-06-03T03:14:01.725Z,18.5
2018-06-03T03:15:11.143Z,18.52
2018-06-03T03:16:20.009Z,18.57
2018-06-03T03:17:29.435Z,18.51
2018-06-03T03:18:38.445Z,18.44
2018-06-03T03:19:47.311Z,18.55
2018-06-03T03:20:56.176Z,18.52
2018-06-03T03:22:05.041Z,18.47
2018-06-03T03:23:13.904Z,18.48
2018-06-03T03:24:22.769Z,18.58
2018-06-03T03:25:31.913Z,18.51
2018-06-03T03:26:40.778Z,18.57
2018-06-03T03:27:49.641Z,18.55
2018-06-03T03:28:58.507Z,18.54
2018-06-03T03:30:08.006Z,18.54
2018-06-03T03:31:17.433Z,18.39
2018-06-03T03:32:26.571Z,18.42
2018-06-03T03:33:35.716Z,18.42
2018-06-03T03:34:44.577Z,18.36
2018-06-03T03:35:53.790Z,18.33
2018-06-03T03:37:02.653Z,18.36
2018-06-03T03:38:11.796Z,18.41
2018-06-03T03:39:20.656Z,18.44
2018-06-03T03:40:29.518Z,18.51
2018-06-03T03:41:38.661Z,18.48
2018-06-03T03:42:47.802Z,18.47
2018-06-03T03:43:56.945Z,18.52
2018-06-03T03:45:05.834Z,18.54
2018-06-03T03:46:14.698Z,18.5
2018-06-03T03:47:23.908Z,18.52
2018-06-03T03:48:32.773Z,18.45
2018-06-03T03:49:41.638Z,18.51
2018-06-03T03:50:50.779Z,18.5
2018-06-03T03:51:59.918Z,18.5
2018-06-03T03:53:08.833Z,18.6
2018-06-03T03:54:17.698Z,18.48
2018-06-03T03:55:26.561Z,18.44
2018-06-03T03:56:35.424Z,18.5
2018-06-03T03:57:44.286Z,18.55
2018-06-03T03:58:53.780Z,18.44
2018-06-03T04:00:02.643Z,18.51
2018-06-03T04:01:11.504Z,18.52
2018-06-03T04:02:20.368Z,18.48
2018-06-03T04:03:29.236Z,18.52
2018-06-03T04:04:38.151Z,18.55
2018-06-03T04:05:47.017Z,18.42
2018-06-03T04:06:55.879Z,18.47
2018-06-03T04:08:04.846Z,18.6
2018-06-03T04:09:14.264Z,18.52
2018-06-03T04:10:23.128Z,18.65
2018-06-03T04:11:31.990Z,18.62
2018-06-03T04:12:40.854Z,18.62
2018-06-03T04:13:49.717Z,18.67
2018-06-03T04:14:58.576Z,18.58
2018-06-03T04:16:07.488Z,18.6
2018-06-03T04:17:16.629Z,18.72
2018-06-03T04:18:25.496Z,18.58
2018-06-03T04:19:34.632Z,18.58
2018-06-03T04:20:43.496Z,18.57
2018-06-03T04:21:52.638Z,18.52
2018-06-03T04:23:01.504Z,18.6
2018-06-03T04:24:10.639Z,18.62
2018-06-03T04:25:19.501Z,18.6
2018-06-03T04:26:28.370Z,18.6
2018-06-03T04:27:37.787Z,18.55
2018-06-03T04:28:46.651Z,18.6
2018-06-03T04:29:55.514Z,18.57
2018-06-03T04:31:04.654Z,18.54
2018-06-03T04:32:13.518Z,18.58
2018-06-03T04:33:22.436Z,18.55
2018-06-03T04:34:31.570Z,18.58
2018-06-03T04:35:40.719Z,18.58
2018-06-03T04:36:49.863Z,18.72
2018-06-03T04:37:59.005Z,18.88
2018-06-03T04:39:07.968Z,18.67
2018-06-03T04:40:17.116Z,18.65
2018-06-03T04:41:26.295Z,18.69
2018-06-03T04:42:35.158Z,18.62
2018-06-03T04:43:44.019Z,18.55
2018-06-03T04:44:53.159Z,18.63
2018-06-03T04:46:02.022Z,18.62
2018-06-03T04:47:10.889Z,18.65
2018-06-03T04:48:19.753Z,18.6
2018-06-03T04:49:28.893Z,18.63
2018-06-03T04:50:38.209Z,18.63
2018-06-03T04:51:47.346Z,18.76
2018-06-03T04:52:56.207Z,18.72
2018-06-03T04:54:05.071Z,18.67
2018-06-03T04:55:14.598Z,18.66
2018-06-03T04:56:23.917Z,18.67
2018-06-03T04:57:32.779Z,18.63
2018-06-03T04:58:41.642Z,18.58
2018-06-03T04:59:50.503Z,18.55
2018-06-03T05:00:59.933Z,18.57
2018-06-03T05:02:08.895Z,18.57
2018-06-03T05:03:17.757Z,18.65
2018-06-03T05:04:26.621Z,18.69
2018-06-03T05:05:35.482Z,18.69
2018-06-03T05:06:44.342Z,18.6
2018-06-03T05:07:53.491Z,18.66
2018-06-03T05:09:02.354Z,18.69
2018-06-03T05:10:11.217Z,18.63
2018-06-03T05:11:20.356Z,18.72
2018-06-03T05:12:29.218Z,18.65
2018-06-03T05:13:38.438Z,18.67
2018-06-03T05:14:47.296Z,18.73
2018-06-03T05:15:56.160Z,18.85
2018-06-03T05:17:05.021Z,18.87
2018-06-03T05:18:13.891Z,18.82
2018-06-03T05:19:22.899Z,18.84
2018-06-03T05:20:31.775Z,18.85
2018-06-03T05:21:40.636Z,18.92
2018-06-03T05:22:49.497Z,18.98
2018-06-03T05:23:58.359Z,18.8
2018-06-03T05:25:07.323Z,18.9
2018-06-03T05:26:16.190Z,18.87
2018-06-03T05:27:25.055Z,18.85
2018-06-03T05:28:33.916Z,19.07
2018-06-03T05:29:43.058Z,18.9
2018-06-03T05:30:52.022Z,18.87
2018-06-03T05:32:00.888Z,18.98
2018-06-03T05:33:10.028Z,18.85
2018-06-03T05:34:18.892Z,18.85
2018-06-03T05:35:28.040Z,18.87
2018-06-03T05:36:37.051Z,18.82
2018-06-03T05:37:46.212Z,18.85
2018-06-03T05:38:55.355Z,18.84
2018-06-03T05:40:04.215Z,18.8
2018-06-03T05:41:13.367Z,18.87
2018-06-03T05:42:22.375Z,18.75
2018-06-03T05:43:31.515Z,18.75
2018-06-03T05:44:40.381Z,18.72
2018-06-03T05:45:49.244Z,18.87
2018-06-03T05:46:58.109Z,18.81
2018-06-03T05:48:07.440Z,18.78
2018-06-03T05:49:16.303Z,18.88
2018-06-03T05:50:25.165Z,18.87
2018-06-03T05:51:34.029Z,18.85
2018-06-03T05:52:42.902Z,18.88
2018-06-03T05:53:52.086Z,18.85
2018-06-03T05:55:00.954Z,18.98
2018-06-03T05:56:09.817Z,18.88
2018-06-03T05:57:18.958Z,18.9
2018-06-03T05:58:27.820Z,19
2018-06-03T05:59:37.112Z,18.94
2018-06-03T06:00:45.975Z,18.94
2018-06-03T06:01:54.837Z,18.91
2018-06-03T06:03:03.700Z,18.95
2018-06-03T06:04:12.839Z,19.06
2018-06-03T06:05:21.713Z,19.02
2018-06-03T06:06:30.851Z,19.18
2018-06-03T06:07:39.713Z,19.19
2018-06-03T06:08:48.575Z,19.18
2018-06-03T06:09:57.440Z,19.16
2018-06-03T06:11:06.305Z,19.18
2018-06-03T06:12:15.171Z,19.25
2018-06-03T06:13:24.035Z,19.25
2018-06-03T06:14:32.896Z,19.31
2018-06-03T06:15:41.760Z,19.26
2018-06-03T06:16:50.637Z,19.32
2018-06-03T06:17:59.783Z,19.4
2018-06-03T06:19:08.648Z,19.39
2018-06-03T06:20:17.514Z,19.44
2018-06-03T06:21:26.379Z,19.41
2018-06-03T06:22:35.240Z,19.55
2018-06-03T06:23:44.103Z,19.63
2018-06-03T06:24:53.242Z,19.69
2018-06-03T06:26:02.109Z,19.61
2018-06-03T06:27:11.254Z,19.58
2018-06-03T06:28:20.130Z,19.54
2018-06-03T06:29:29.056Z,19.48
2018-06-03T06:30:38.173Z,19.48
2018-06-03T06:31:47.037Z,19.62
2018-06-03T06:32:55.901Z,19.68
2018-06-03T06:34:04.775Z,19.69
2018-06-03T06:35:13.640Z,19.69
2018-06-03T06:36:22.942Z,19.62
2018-06-03T06:37:32.393Z,19.68
2018-06-03T06:38:41.535Z,19.73
2018-06-03T06:39:50.399Z,19.81
2018-06-03T06:40:59.266Z,19.84
2018-06-03T06:42:08.233Z,19.91
2018-06-03T06:43:17.414Z,19.87
2018-06-03T06:44:26.288Z,19.84
2018-06-03T06:45:35.415Z,19.96
2018-06-03T06:46:44.279Z,19.96
2018-06-03T06:47:53.598Z,20.05
2018-06-03T06:49:02.464Z,19.95
2018-06-03T06:50:11.326Z,20.05
2018-06-03T06:51:20.191Z,20.02
2018-06-03T06:52:29.338Z,20.08
2018-06-03T06:53:38.254Z,20.1
2018-06-03T06:54:47.119Z,20.1
2018-06-03T06:55:55.984Z,19.99
2018-06-03T06:57:04.854Z,20.1
2018-06-03T06:58:13.717Z,20.14
2018-06-03T06:59:22.734Z,20.16
2018-06-03T07:00:31.602Z,20.18
2018-06-03T07:01:40.470Z,20.24
2018-06-03T07:02:49.618Z,20.32
2018-06-03T07:03:58.485Z,20.29
2018-06-03T07:05:07.451Z,20.35
2018-06-03T07:06:16.318Z,20.33
2018-06-03T07:07:25.467Z,20.35
2018-06-03T07:08:34.896Z,20.31
2018-06-03T07:09:44.043Z,20.33
2018-06-03T07:10:53.061Z,20.47
2018-06-03T07:12:01.928Z,20.38
2018-06-03T07:13:10.905Z,20.36
2018-06-03T07:14:19.760Z,20.5
2018-06-03T07:15:28.672Z,20.36
2018-06-03T07:16:38.445Z,20.41
2018-06-03T07:17:47.308Z,20.39
2018-06-03T07:18:56.176Z,20.5
2018-06-03T07:20:05.041Z,20.31
2018-06-03T07:21:13.991Z,20.42
2018-06-03T07:22:22.908Z,20.36
2018-06-03T07:23:32.055Z,20.52
2018-06-03T07:24:40.921Z,20.51
2018-06-03T07:25:49.786Z,20.59
2018-06-03T07:26:58.652Z,20.58
2018-06-03T07:28:07.895Z,20.72
2018-06-03T07:29:17.039Z,20.66
2018-06-03T07:30:25.904Z,20.7
2018-06-03T07:31:34.784Z,20.62
2018-06-03T07:32:43.670Z,20.67
2018-06-03T07:33:52.979Z,20.7
2018-06-03T07:35:02.143Z,20.7
2018-06-03T07:36:11.577Z,20.67
2018-06-03T07:37:20.443Z,20.67
2018-06-03T07:38:29.310Z,20.67
2018-06-03T07:39:38.528Z,20.73
2018-06-03T07:40:47.393Z,20.61
2018-06-03T07:41:56.534Z,20.66
2018-06-03T07:43:05.409Z,20.73
2018-06-03T07:44:14.275Z,20.73
2018-06-03T07:45:23.248Z,20.72
2018-06-03T07:46:32.112Z,20.82
2018-06-03T07:47:40.977Z,20.77
2018-06-03T07:48:49.842Z,20.8
2018-06-03T07:49:58.991Z,20.79
2018-06-03T07:51:08.090Z,20.84
2018-06-03T07:52:17.107Z,20.85
2018-06-03T07:53:25.987Z,20.87
2018-06-03T07:54:34.931Z,20.8
2018-06-03T07:55:43.794Z,20.79
2018-06-03T07:56:52.826Z,20.87
2018-06-03T07:58:01.968Z,20.84
2018-06-03T07:59:11.134Z,20.94
2018-06-03T08:00:20.002Z,20.89
2018-06-03T08:01:29.386Z,20.91
2018-06-03T08:02:38.301Z,21.06
2018-06-03T08:03:47.457Z,21.04
2018-06-03T08:04:56.833Z,21.06
2018-06-03T08:06:05.792Z,20.99
2018-06-03T08:07:14.570Z,20.91
2018-06-03T08:08:23.715Z,20.95
2018-06-03T08:09:32.582Z,20.89
2018-06-03T08:10:41.452Z,20.92
2018-06-03T08:11:50.314Z,21.03
2018-06-03T08:12:59.180Z,20.91
2018-06-03T08:14:08.047Z,21.03
2018-06-03T08:15:16.917Z,21.1
2018-06-03T08:16:26.069Z,21.14
2018-06-03T08:17:34.937Z,21.19
2018-06-03T08:18:43.805Z,21.1
2018-06-03T08:19:53.326Z,21.07
2018-06-03T08:21:02.191Z,21.14
2018-06-03T08:22:11.056Z,21.21
2018-06-03T08:23:19.921Z,21.35
2018-06-03T08:24:28.788Z,21.28
2018-06-03T08:25:37.857Z,21.32
2018-06-03T08:26:46.721Z,21.27
2018-06-03T08:27:55.594Z,21.4
2018-06-03T08:29:04.457Z,21.43
2018-06-03T08:30:13.331Z,21.46
2018-06-03T08:31:22.475Z,21.43
2018-06-03T08:32:31.343Z,21.37
2018-06-03T08:33:40.205Z,21.37
2018-06-03T08:34:49.072Z,21.35
2018-06-03T08:35:57.938Z,21.42
2018-06-03T08:37:07.110Z,21.46
2018-06-03T08:38:16.254Z,21.44
2018-06-03T08:39:25.119Z,21.49
2018-06-03T08:40:33.989Z,21.54
2018-06-03T08:41:42.857Z,21.54
2018-06-03T08:42:51.875Z,21.52
2018-06-03T08:44:00.740Z,21.52
2018-06-03T08:45:09.608Z,21.61
2018-06-03T08:46:18.475Z,21.65
2018-06-03T08:47:27.342Z,21.64
2018-06-03T08:48:36.208Z,21.67
2018-06-03T08:49:45.076Z,21.68
2018-06-03T08:50:53.943Z,21.61
2018-06-03T08:52:03.116Z,21.72
2018-06-03T08:53:12.341Z,21.74
2018-06-03T08:54:21.315Z,21.67
2018-06-03T08:55:30.179Z,21.65
2018-06-03T08:56:39.047Z,21.67
2018-06-03T08:57:48.199Z,21.67
2018-06-03T08:58:57.064Z,21.67
2018-06-03T09:00:06.283Z,21.67
2018-06-03T09:01:15.428Z,21.71
2018-06-03T09:02:24.295Z,21.71
2018-06-03T09:03:33.162Z,21.79
2018-06-03T09:04:42.028Z,21.8
2018-06-03T09:05:51.042Z,21.74
2018-06-03T09:06:59.921Z,21.74
2018-06-03T09:08:09.132Z,21.77
2018-06-03T09:09:18.000Z,21.74
2018-06-03T09:10:26.867Z,21.68
2018-06-03T09:11:36.163Z,21.72
2018-06-03T09:12:45.031Z,21.77
2018-06-03T09:13:53.897Z,21.75
2018-06-03T09:15:02.813Z,21.74
2018-06-03T09:16:11.678Z,21.77
2018-06-03T09:17:20.544Z,21.77
2018-06-03T09:18:29.410Z,21.82
2018-06-03T09:19:38.280Z,21.9
2018-06-03T09:20:47.423Z,21.86
2018-06-03T09:21:56.290Z,21.82
2018-06-03T09:23:05.534Z,21.94
2018-06-03T09:24:14.405Z,21.8
2018-06-03T09:25:23.824Z,21.83
2018-06-03T09:26:32.843Z,21.88
2018-06-03T09:27:41.709Z,21.79
2018-06-03T09:28:51.028Z,21.84
2018-06-03T09:29:59.898Z,21.91
2018-06-03T09:31:09.043Z,21.9
2018-06-03T09:32:18.186Z,21.99
2018-06-03T09:33:27.054Z,22.09
2018-06-03T09:34:36.283Z,22.14
2018-06-03T09:35:45.146Z,22.2
2018-06-03T09:36:54.017Z,22.25
2018-06-03T09:38:02.880Z,22.17
2018-06-03T09:39:12.022Z,22.2
2018-06-03T09:40:21.038Z,22.24
2018-06-03T09:41:29.907Z,22.3
2018-06-03T09:42:38.780Z,22.36
2018-06-03T09:43:48.203Z,22.42
2018-06-03T09:44:57.503Z,22.47
2018-06-03T09:46:06.941Z,22.31
2018-06-03T09:47:15.809Z,22.27
2018-06-03T09:48:24.955Z,22.3
2018-06-03T09:49:34.104Z,22.47
2018-06-03T09:50:42.972Z,22.28
2018-06-03T09:51:52.405Z,22.22
2018-06-03T09:53:01.277Z,22.25
2018-06-03T09:54:10.494Z,22.33
2018-06-03T09:55:19.653Z,22.21
2018-06-03T09:56:28.520Z,22.2
2018-06-03T09:57:37.764Z,22.14
2018-06-03T09:58:46.631Z,22.15
2018-06-03T09:59:55.502Z,22.06
2018-06-03T10:01:04.657Z,22.06
2018-06-03T10:02:13.732Z,22.09
2018-06-03T10:03:23.372Z,22.05
2018-06-03T10:04:32.476Z,22.06
2018-06-03T10:05:41.581Z,22.15
2018-06-03T10:06:50.769Z,22.1
2018-06-03T10:08:00.054Z,22.12
2018-06-03T10:09:08.918Z,22
2018-06-03T10:10:17.794Z,22.05
2018-06-03T10:11:26.952Z,22
2018-06-03T10:12:35.827Z,22.06
2018-06-03T10:13:44.986Z,21.99
2018-06-03T10:14:54.002Z,22.03
2018-06-03T10:16:03.186Z,21.92
2018-06-03T10:17:12.333Z,21.98
2018-06-03T10:18:21.194Z,22.09
2018-06-03T10:19:30.061Z,22.12
2018-06-03T10:20:39.305Z,22.18
2018-06-03T10:21:48.176Z,22.24
2018-06-03T10:22:57.040Z,22.06
2018-06-03T10:24:05.904Z,22.09
2018-06-03T10:25:14.772Z,22.22
2018-06-03T10:26:23.790Z,22.18
2018-06-03T10:27:32.659Z,22.24
2018-06-03T10:28:41.524Z,22.22
2018-06-03T10:29:50.451Z,22.2
2018-06-03T10:30:59.321Z,22.18
2018-06-03T10:32:08.539Z,22.18
2018-06-03T10:33:17.405Z,22.31
2018-06-03T10:34:26.597Z,22.22
2018-06-03T10:35:36.025Z,22.1
2018-06-03T10:36:45.173Z,22.1
2018-06-03T10:37:54.089Z,21.98
2018-06-03T10:39:02.953Z,21.92
2018-06-03T10:40:11.821Z,21.99
2018-06-03T10:41:20.688Z,22.02
2018-06-03T10:42:29.554Z,22.06
2018-06-03T10:43:38.420Z,22.09
2018-06-03T10:44:47.619Z,22.06
2018-06-03T10:45:56.487Z,22.05
2018-06-03T10:47:05.630Z,22.12
2018-06-03T10:48:14.496Z,22.05
2018-06-03T10:49:23.991Z,22
2018-06-03T10:50:32.863Z,21.91
2018-06-03T10:51:41.740Z,21.92
2018-06-03T10:52:50.610Z,22.02
2018-06-03T10:53:59.480Z,22.02
2018-06-03T10:55:08.453Z,22.03
2018-06-03T10:56:17.600Z,21.99
2018-06-03T10:57:26.481Z,22
2018-06-03T10:58:35.351Z,22.03
2018-06-03T10:59:44.256Z,22.03
2018-06-03T11:00:53.855Z,22.09
2018-06-03T11:02:03.061Z,22.21
2018-06-03T11:03:12.201Z,22.22
2018-06-03T11:04:21.068Z,22.25
2018-06-03T11:05:30.001Z,22.18
2018-06-03T11:06:39.305Z,22.1
2018-06-03T11:07:48.174Z,22.27
2018-06-03T11:08:57.043Z,22.22
2018-06-03T11:10:05.910Z,22.21
2018-06-03T11:11:14.782Z,22.2
2018-06-03T11:12:23.746Z,22.28
2018-06-03T11:13:32.638Z,22.3
2018-06-03T11:14:41.502Z,22.27
2018-06-03T11:15:50.368Z,22.31
2018-06-03T11:16:59.233Z,22.3
2018-06-03T11:18:08.544Z,22.43
2018-06-03T11:19:17.622Z,22.51
2018-06-03T11:20:26.745Z,22.51
2018-06-03T11:21:35.891Z,22.57
2018-06-03T11:22:44.758Z,22.54
2018-06-03T11:23:53.780Z,22.58
2018-06-03T11:25:02.926Z,22.55
2018-06-03T11:26:11.790Z,22.54
2018-06-03T11:27:20.655Z,22.64
2018-06-03T11:28:29.523Z,22.65
2018-06-03T11:29:38.443Z,22.62
2018-06-03T11:30:47.864Z,22.62
2018-06-03T11:31:56.731Z,22.62
2018-06-03T11:33:05.598Z,22.67
2018-06-03T11:34:14.464Z,22.72
2018-06-03T11:35:23.433Z,22.72
2018-06-03T11:36:32.301Z,22.79
2018-06-03T11:37:41.167Z,22.75
2018-06-03T11:38:50.035Z,22.79
2018-06-03T11:39:58.899Z,22.88
2018-06-03T11:41:07.967Z,23.01
2018-06-03T11:42:17.390Z,23.02
2018-06-03T11:43:26.257Z,22.94
2018-06-03T11:44:35.403Z,22.94
2018-06-03T11:45:44.268Z,23
2018-06-03T11:46:53.236Z,23.02
2018-06-03T11:48:02.379Z,23.07
2018-06-03T11:49:11.247Z,23.16
2018-06-03T11:50:20.113Z,23.15
2018-06-03T11:51:29.563Z,23.09
2018-06-03T11:52:39.172Z,23.09
2018-06-03T11:53:48.041Z,23.15
2018-06-03T11:54:56.916Z,23.13
2018-06-03T11:56:06.066Z,23.17
2018-06-03T11:57:15.214Z,23.23
2018-06-03T11:58:24.896Z,23.27
2018-06-03T11:59:33.765Z,23.28
2018-06-03T12:00:42.633Z,23.22
2018-06-03T12:01:51.554Z,23.38
2018-06-03T12:03:01.074Z,23.33
2018-06-03T12:04:10.224Z,23.36
2018-06-03T12:05:19.095Z,23.39
2018-06-03T12:06:27.964Z,23.42
2018-06-03T12:07:36.832Z,23.43
2018-06-03T12:08:45.710Z,23.57
2018-06-03T12:09:54.857Z,23.55
2018-06-03T12:11:03.726Z,23.61
2018-06-03T12:12:12.597Z,23.68
2018-06-03T12:13:21.474Z,23.69
2018-06-03T12:14:30.339Z,23.79
2018-06-03T12:15:39.358Z,23.91
2018-06-03T12:16:48.230Z,23.97
2018-06-03T12:17:57.657Z,23.97
2018-06-03T12:19:06.530Z,24.09
2018-06-03T12:20:15.400Z,24.18
2018-06-03T12:21:24.425Z,24.32
2018-06-03T12:22:33.587Z,24.49
2018-06-03T12:23:42.457Z,24.5
2018-06-03T12:24:51.336Z,24.45
2018-06-03T12:26:00.203Z,24.57
2018-06-03T12:27:09.426Z,24.46
2018-06-03T12:28:18.298Z,24.47
2018-06-03T12:29:27.168Z,24.52
2018-06-03T12:30:36.046Z,24.65
2018-06-03T12:31:44.917Z,24.55
2018-06-03T12:32:53.987Z,24.58
2018-06-03T12:34:03.139Z,24.68
2018-06-03T12:35:12.584Z,24.65
2018-06-03T12:36:21.455Z,24.81
2018-06-03T12:37:30.330Z,24.73
2018-06-03T12:38:39.250Z,24.84
2018-06-03T12:39:48.402Z,24.8
2018-06-03T12:40:57.273Z,24.85
2018-06-03T12:42:06.145Z,24.8
2018-06-03T12:43:15.297Z,24.77
2018-06-03T12:44:24.439Z,24.81
2018-06-03T12:45:33.595Z,24.76
2018-06-03T12:46:42.793Z,24.84
2018-06-03T12:47:51.947Z,24.77
2018-06-03T12:49:01.097Z,24.83
2018-06-03T12:50:10.346Z,24.76
2018-06-03T12:51:19.219Z,24.9
2018-06-03T12:52:28.089Z,25.02
2018-06-03T12:53:36.960Z,25.06
2018-06-03T12:54:45.828Z,25.06
2018-06-03T12:55:54.949Z,25.25
2018-06-03T12:57:03.820Z,25.43
2018-06-03T12:58:12.693Z,25.23
2018-06-03T12:59:22.117Z,25.36
2018-06-03T13:00:31.268Z,25.39
2018-06-03T13:01:40.608Z,25.58
2018-06-03T13:02:49.604Z,25.57
2018-06-03T13:03:58.782Z,25.62
2018-06-03T13:05:07.696Z,25.51
2018-06-03T13:06:16.568Z,25.64
2018-06-03T13:07:25.604Z,25.65
2018-06-03T13:08:34.636Z,25.77
2018-06-03T13:09:43.511Z,25.77
2018-06-03T13:10:52.491Z,25.87
2018-06-03T13:12:01.416Z,25.8
2018-06-03T13:13:10.773Z,25.65
2018-06-03T13:14:19.928Z,25.62
2018-06-03T13:15:28.800Z,25.54
2018-06-03T13:16:37.673Z,25.42
2018-06-03T13:17:46.822Z,25.5
2018-06-03T13:18:55.791Z,25.58
2018-06-03T13:20:04.663Z,25.47
2018-06-03T13:21:13.539Z,25.51
2018-06-03T13:22:22.687Z,25.55
2018-06-03T13:23:31.565Z,25.45
2018-06-03T13:24:40.586Z,25.4
2018-06-03T13:25:49.457Z,25.54
2018-06-03T13:26:58.327Z,25.51
2018-06-03T13:28:07.481Z,25.67
2018-06-03T13:29:16.631Z,25.75
2018-06-03T13:30:25.604Z,25.9
2018-06-03T13:31:34.752Z,25.92
2018-06-03T13:32:43.625Z,25.98
2018-06-03T13:33:52.498Z,25.92
2018-06-03T13:35:01.369Z,25.95
2018-06-03T13:36:10.344Z,26.15
2018-06-03T13:37:19.214Z,26.39
2018-06-03T13:38:28.369Z,26.48
2018-06-03T13:39:37.243Z,26.58
2018-06-03T13:40:46.117Z,26.62
2018-06-03T13:41:55.094Z,26.3
2018-06-03T13:43:03.981Z,26.48
2018-06-03T13:44:13.133Z,26.4
2018-06-03T13:45:22.021Z,26.52
2018-06-03T13:46:31.176Z,26.52
2018-06-03T13:47:40.676Z,26.81
2018-06-03T13:48:50.131Z,26.95
2018-06-03T13:49:59.011Z,26.73
2018-06-03T13:51:08.160Z,26.94
2018-06-03T13:52:17.036Z,26.91
2018-06-03T13:53:26.012Z,26.97
2018-06-03T13:54:34.889Z,26.97
2018-06-03T13:55:43.767Z,27.02
2018-06-03T13:56:52.643Z,26.94
2018-06-03T13:58:01.517Z,27.04
2018-06-03T13:59:10.441Z,26.81
2018-06-03T14:00:19.318Z,27.07
2018-06-03T14:01:28.193Z,27.37
2018-06-03T14:02:37.068Z,27.74
2018-06-03T14:03:45.943Z,27.67
2018-06-03T14:04:55.070Z,27.65
2018-06-03T14:06:03.947Z,27.82
2018-06-03T14:07:12.823Z,27.77
2018-06-03T14:08:21.704Z,27.75
2018-06-03T14:09:30.580Z,27.72
2018-06-03T14:10:39.741Z,27.57
2018-06-03T14:11:48.616Z,27.5
2018-06-03T14:12:57.491Z,27.24
2018-06-03T14:14:06.651Z,27.25
2018-06-03T14:15:15.807Z,27.13
2018-06-03T14:16:24.959Z,27.21
2018-06-03T14:17:34.109Z,27.07
2018-06-03T14:18:43.261Z,26.89
2018-06-03T14:19:52.410Z,26.88
2018-06-03T14:21:01.286Z,26.97
2018-06-03T14:22:10.487Z,26.85
2018-06-03T14:23:19.359Z,26.84
2018-06-03T14:24:28.230Z,26.8
2018-06-03T14:25:37.103Z,26.8
2018-06-03T14:26:46.270Z,26.65
2018-06-03T14:27:55.142Z,26.67
2018-06-03T14:29:04.014Z,26.7
2018-06-03T14:30:12.893Z,26.73
2018-06-03T14:31:21.756Z,26.63
2018-06-03T14:32:30.630Z,26.73
2018-06-03T14:33:39.508Z,26.84
2018-06-03T14:34:48.654Z,26.82
2018-06-03T14:35:57.526Z,26.75
2018-06-03T14:37:06.398Z,26.91
2018-06-03T14:38:15.272Z,27.04
2018-06-03T14:39:24.194Z,27.21
2018-06-03T14:40:33.068Z,27.43
2018-06-03T14:41:41.949Z,27.72
2018-06-03T14:42:50.885Z,27.85
2018-06-03T14:43:59.754Z,27.99
2018-06-03T14:45:08.857Z,28.06
2018-06-03T14:46:17.742Z,28.07
2018-06-03T14:47:26.608Z,28.27
2018-06-03T14:48:35.482Z,28.34
2018-06-03T14:49:44.638Z,28.58
2018-06-03T14:50:53.933Z,28.55
2018-06-03T14:52:02.814Z,28.49
2018-06-03T14:53:11.690Z,28.52